Time;durP1;ratioP1;P1;durP2;ratioP2;P2;SDS_P1;SDS_P2;PMS_P1;PMS_P2;Temp;Humidity;BMP_temperature;BMP_pressure;BME280_temperature;BME280_humidity;BME280_pressure;Samples;Min_cycle;Max_cycle;Signal;HPM_P1;HPM_P2
2021/12/11 00:00:15;;;;;;;42.40;19.97;;;;;;;4.63;69.00;99494.00;5505123;32;34548;-85
2021/12/11 00:03:23;;;;;;;38.47;19.10;;;;;;;3.49;72.32;99496.19;5509741;32;34756;-85
2021/12/11 00:06:32;;;;;;;39.00;19.03;;;;;;;3.96;71.94;99503.66;5512977;32;32935;-81
2021/12/11 00:09:46;;;;;;;39.93;19.07;;;;;;;4.37;68.21;99512.09;5504574;32;34258;-84
2021/12/11 00:12:58;;;;;;;35.60;17.98;;;;;;;4.60;68.08;99509.72;5511255;32;34696;-81
2021/12/11 00:16:00;;;;;;;40.67;20.07;;;;;;;4.01;68.33;99514.81;5491837;32;35112;-85
2021/12/11 00:19:13;;;;;;;36.33;18.23;;;;;;;4.74;67.76;99523.16;5511710;32;33962;-81
2021/12/11 00:22:19;;;;;;;40.53;20.20;;;;;;;4.43;68.47;99517.12;5496666;32;34990;-82
2021/12/11 00:25:21;;;;;;;41.73;19.80;;;;;;;3.80;72.48;99527.47;5502731;32;36252;-81
2021/12/11 00:28:24;;;;;;;39.20;18.63;;;;;;;4.71;67.87;99523.28;5511006;32;34346;-82
2021/12/11 00:31:28;;;;;;;35.70;18.20;;;;;;;4.66;68.05;99535.56;5506658;32;34347;-80
2021/12/11 00:34:31;;;;;;;40.70;19.30;;;;;;;4.85;67.17;99541.94;5516603;32;33983;-80
2021/12/11 00:37:34;;;;;;;38.58;18.92;;;;;;;4.80;67.13;99542.97;5507293;31;35975;-85
2021/12/11 00:40:37;;;;;;;40.13;19.03;;;;;;;4.96;66.25;99549.44;5502924;32;34524;-81
2021/12/11 00:43:41;;;;;;;39.55;18.87;;;;;;;3.85;71.18;99553.31;5513761;32;35036;-85
2021/12/11 00:46:43;;;;;;;41.25;19.17;;;;;;;3.62;72.73;99569.50;5503786;32;33877;-84
2021/12/11 00:49:55;;;;;;;39.17;18.63;;;;;;;4.35;69.62;99574.59;5512469;32;35454;-85
2021/12/11 00:53:18;;;;;;;37.80;18.80;;;;;;;3.87;69.75;99563.72;5505218;32;36014;-81
2021/12/11 00:56:40;;;;;;;41.50;17.23;;;;;;;4.34;68.88;99586.75;5510954;32;37017;-82
2021/12/11 00:59:42;;;;;;;38.87;18.87;;;;;;;3.86;70.77;99585.38;5507218;32;33967;-84
2021/12/11 01:02:51;;;;;;;37.40;18.37;;;;;;;4.74;67.87;99600.41;5504478;32;35591;-84
2021/12/11 01:06:00;;;;;;;39.97;18.27;;;;;;;4.81;67.54;99600.19;5513067;32;33990;-81
2021/12/11 01:09:12;;;;;;;40.53;18.40;;;;;;;4.77;67.03;99596.00;5506246;32;34804;-86
2021/12/11 01:12:46;;;;;;;39.20;18.20;;;;;;;4.29;69.72;99605.97;5502804;32;36466;-81
2021/12/11 01:15:55;;;;;;;38.03;17.33;;;;;;;4.98;66.34;99604.09;5511539;32;34735;-80
2021/12/11 01:19:02;;;;;;;40.43;18.67;;;;;;;5.03;66.53;99602.22;5506248;32;34718;-86
2021/12/11 01:22:20;;;;;;;39.30;18.97;;;;;;;4.89;67.15;99610.38;5509036;32;34158;-82
2021/12/11 01:25:27;;;;;;;33.37;17.03;;;;;;;4.68;67.06;99614.44;5504033;32;34754;-81
2021/12/11 01:28:30;;;;;;;34.63;17.13;;;;;;;4.10;70.05;99610.78;5507037;32;35350;-84
2021/12/11 01:31:32;;;;;;;33.57;16.60;;;;;;;4.62;69.24;99605.06;5512292;32;34244;-81
2021/12/11 01:34:34;;;;;;;37.00;17.17;;;;;;;5.41;64.51;99595.88;5508066;32;34655;-81
2021/12/11 01:37:37;;;;;;;35.47;17.10;;;;;;;4.88;66.17;99603.47;5512617;32;34754;-82
2021/12/11 01:40:40;;;;;;;37.20;17.50;;;;;;;5.27;65.49;99598.84;5510917;32;34882;-81
2021/12/11 01:43:44;;;;;;;33.42;16.52;;;;;;;4.31;67.86;99597.22;5492934;32;34455;-81
2021/12/11 01:46:49;;;;;;;36.83;15.77;;;;;;;4.84;67.31;99601.88;5515414;32;33930;-81
2021/12/11 01:49:55;;;;;;;31.53;15.50;;;;;;;5.06;66.67;99604.72;5490501;32;36146;-81
2021/12/11 01:53:05;;;;;;;33.77;15.40;;;;;;;5.49;63.91;99608.66;5510845;32;34599;-86
2021/12/11 01:56:11;;;;;;;33.47;15.10;;;;;;;5.02;65.96;99613.50;5511588;32;34811;-84
2021/12/11 01:59:21;;;;;;;33.97;15.47;;;;;;;5.32;64.29;99610.00;5514828;32;34748;-81
2021/12/11 02:02:31;;;;;;;37.30;16.53;;;;;;;4.47;67.23;99622.84;5506307;32;34153;-86
2021/12/11 02:05:34;;;;;;;32.63;16.20;;;;;;;3.51;70.88;99624.31;5501275;32;34710;-81
2021/12/11 02:08:39;;;;;;;39.47;17.42;;;;;;;4.79;67.21;99609.81;5513215;32;35579;-86
2021/12/11 02:11:43;;;;;;;35.23;15.60;;;;;;;4.77;66.29;99609.00;5492646;32;36390;-85
2021/12/11 02:14:50;;;;;;;33.47;15.68;;;;;;;4.93;65.70;99609.41;5500386;32;34738;-87
2021/12/11 02:18:10;;;;;;;33.13;15.60;;;;;;;5.36;64.57;99619.44;5511423;32;34462;-84
2021/12/11 02:21:25;;;;;;;33.30;15.60;;;;;;;3.96;68.37;99613.72;5499907;32;34438;-80
2021/12/11 02:24:43;;;;;;;30.67;15.07;;;;;;;3.18;72.98;99609.47;5514802;32;34465;-84
2021/12/11 02:27:52;;;;;;;34.93;17.30;;;;;;;4.23;70.23;99609.56;5505527;32;35488;-86
2021/12/11 02:31:33;;;;;;;31.73;15.97;;;;;;;3.11;72.56;99606.16;5514451;32;34078;-82
2021/12/11 02:34:44;;;;;;;33.90;15.73;;;;;;;3.12;73.23;99609.59;5435886;32;34436;-75
2021/12/11 02:37:58;;;;;;;37.37;16.37;;;;;;;2.75;76.41;99610.34;5423420;32;35091;-70
2021/12/11 02:41:06;;;;;;;37.97;16.07;;;;;;;2.56;77.36;99604.66;5428741;32;33962;-70
2021/12/11 02:44:16;;;;;;;35.73;16.03;;;;;;;2.68;78.51;99609.59;5408804;32;33790;-70
2021/12/11 02:47:23;;;;;;;36.13;15.33;;;;;;;2.80;77.80;99603.31;5400647;32;34740;-75
2021/12/11 02:50:42;;;;;;;35.03;16.10;;;;;;;3.04;76.65;99598.53;5432863;32;34652;-76
2021/12/11 02:53:50;;;;;;;33.23;15.87;;;;;;;3.07;76.59;99595.84;5402654;32;33934;-76
2021/12/11 02:56:57;;;;;;;33.47;15.37;;;;;;;3.70;73.63;99583.16;5413972;32;35188;-76
2021/12/11 03:00:29;;;;;;;35.97;16.47;;;;;;;3.48;74.60;99588.00;5418433;32;32831;-76
2021/12/11 03:03:42;;;;;;;33.20;15.63;;;;;;;3.49;73.81;99587.13;5420158;32;33987;-71
2021/12/11 03:06:48;;;;;;;37.40;16.43;;;;;;;3.30;74.70;99587.56;5427990;32;34151;-77
2021/12/11 03:09:54;;;;;;;33.57;15.67;;;;;;;3.70;72.69;99577.97;5419507;32;33093;-76
2021/12/11 03:12:58;;;;;;;30.80;15.03;;;;;;;2.60;77.68;99582.09;5414356;32;34231;-76
2021/12/11 03:16:01;;;;;;;33.92;16.20;;;;;;;2.76;78.34;99580.03;5404687;32;33907;-75
2021/12/11 03:19:07;;;;;;;33.50;15.50;;;;;;;3.69;74.32;99580.59;5410268;32;34060;-70
2021/12/11 03:22:16;;;;;;;31.67;14.63;;;;;;;4.04;71.22;99592.72;5425935;32;34247;-76
2021/12/11 03:25:24;;;;;;;32.07;14.60;;;;;;;3.18;74.72;99605.13;5408611;32;32959;-71
2021/12/11 03:28:27;;;;;;;34.57;14.53;;;;;;;2.67;77.74;99613.09;5421953;32;33796;-70
2021/12/11 03:31:31;;;;;;;31.48;14.82;;;;;;;3.73;73.97;99622.06;5416135;32;34097;-71
2021/12/11 03:34:37;;;;;;;35.77;14.50;;;;;;;3.89;71.82;99617.38;5422477;32;34499;-76
2021/12/11 03:37:41;;;;;;;31.00;13.30;;;;;;;4.01;71.58;99624.00;5407639;32;35317;-76
2021/12/11 03:40:44;;;;;;;28.93;13.53;;;;;;;3.14;75.85;99642.41;5430625;32;33788;-71
2021/12/11 03:43:48;;;;;;;32.63;14.43;;;;;;;3.71;73.64;99647.22;5428239;32;33101;-76
2021/12/11 03:46:53;;;;;;;30.13;13.30;;;;;;;3.46;72.98;99646.06;5416300;32;34898;-76
2021/12/11 03:49:59;;;;;;;31.80;13.30;;;;;;;3.60;72.15;99654.41;5408807;32;35759;-71
2021/12/11 03:53:02;;;;;;;27.90;13.07;;;;;;;3.86;70.87;99658.16;5415297;32;35022;-76
2021/12/11 03:56:09;;;;;;;31.70;14.40;;;;;;;4.56;68.23;99665.06;5421912;32;34544;-75
2021/12/11 03:59:13;;;;;;;30.37;14.23;;;;;;;3.72;71.76;99661.09;5420208;32;36140;-71
2021/12/11 04:02:21;;;;;;;31.57;13.37;;;;;;;3.85;70.68;99653.84;5405480;32;34897;-76
2021/12/11 04:05:23;;;;;;;29.47;14.30;;;;;;;3.24;73.36;99656.09;5423756;32;34185;-71
2021/12/11 04:08:29;;;;;;;30.03;13.67;;;;;;;2.96;75.30;99651.47;5419785;32;35311;-77
2021/12/11 04:11:36;;;;;;;32.57;13.67;;;;;;;3.58;73.23;99655.34;5424700;32;34736;-76
2021/12/11 04:14:43;;;;;;;28.77;13.67;;;;;;;3.85;70.25;99649.50;5425839;32;35215;-71
2021/12/11 04:17:46;;;;;;;32.03;13.77;;;;;;;3.21;73.40;99653.53;5406008;32;32803;-72
2021/12/11 04:20:50;;;;;;;27.43;12.60;;;;;;;3.99;71.77;99657.87;5414373;32;34346;-71
2021/12/11 04:23:54;;;;;;;28.87;12.47;;;;;;;3.32;71.69;99667.16;5415932;32;36261;-76
2021/12/11 04:27:00;;;;;;;28.77;12.30;;;;;;;2.23;77.27;99668.34;5428580;32;34526;-71
2021/12/11 04:30:09;;;;;;;27.53;12.53;;;;;;;2.09;78.87;99665.13;5404161;32;34666;-70
2021/12/11 04:33:12;;;;;;;28.13;12.83;;;;;;;3.02;74.60;99665.19;5405489;32;34805;-76
2021/12/11 04:36:24;;;;;;;29.20;13.90;;;;;;;2.06;76.80;99666.06;5422022;32;34352;-76
2021/12/11 04:39:33;;;;;;;30.50;13.37;;;;;;;2.41;76.63;99654.22;5429522;32;35537;-76
2021/12/11 04:46:02;;;;;;;28.00;13.10;;;;;;;4.46;67.71;99655.81;5416111;32;34201;-76
2021/12/11 04:49:15;;;;;;;27.70;12.83;;;;;;;3.49;71.46;99665.06;5402454;32;34434;-76
2021/12/11 04:52:33;;;;;;;27.90;13.80;;;;;;;3.42;72.20;99670.44;5419540;32;33986;-76
2021/12/11 05:00:05;;;;;;;31.37;12.97;;;;;;;3.31;72.90;99681.03;5424520;32;33256;-75
2021/12/11 05:09:14;;;;;;;32.67;13.40;;;;;;;3.03;73.94;99683.34;5433781;32;33487;-71
2021/12/11 05:12:30;;;;;;;31.27;14.43;;;;;;;2.58;75.93;99706.66;5416661;32;33812;-76
2021/12/11 05:15:37;;;;;;;32.43;14.37;;;;;;;3.20;73.51;99711.56;5425527;32;33777;-71
2021/12/11 05:18:42;;;;;;;29.33;13.07;;;;;;;3.49;72.55;99706.63;5418824;32;34078;-71
2021/12/11 05:21:46;;;;;;;26.00;12.63;;;;;;;3.42;72.41;99710.25;5404467;32;34225;-75
2021/12/11 05:24:53;;;;;;;30.10;13.68;;;;;;;2.70;74.79;99715.94;5410367;32;34085;-76
2021/12/11 05:27:56;;;;;;;32.93;14.83;;;;;;;3.10;74.11;99713.50;5403257;32;34444;-76
2021/12/11 05:31:01;;;;;;;30.90;14.02;;;;;;;3.67;71.86;99702.78;5419672;32;34004;-71
2021/12/11 05:34:04;;;;;;;30.67;14.37;;;;;;;4.07;69.87;99700.12;5402801;32;33582;-70
2021/12/11 05:37:08;;;;;;;25.03;12.10;;;;;;;3.01;73.14;99700.66;5415186;32;33099;-76
2021/12/11 05:40:13;;;;;;;25.67;12.33;;;;;;;3.60;70.24;99706.38;5396972;32;35169;-71
2021/12/11 05:43:16;;;;;;;29.07;12.87;;;;;;;3.56;70.83;99707.34;5427106;32;34924;-70
2021/12/11 05:46:20;;;;;;;30.10;12.90;;;;;;;3.12;72.85;99719.50;5408068;32;34045;-76
2021/12/11 05:49:25;;;;;;;26.90;11.93;;;;;;;2.79;74.07;99721.00;5388799;32;35128;-76
2021/12/11 05:52:29;;;;;;;28.87;12.23;;;;;;;2.79;75.25;99722.72;5429836;32;34524;-70
2021/12/11 05:55:32;;;;;;;27.73;12.30;;;;;;;2.40;74.94;99731.16;5415770;32;34749;-71
2021/12/11 06:02:26;;;;;;;33.13;13.63;;;;;;;2.43;75.13;99738.03;5430649;32;34187;-71
2021/12/11 06:05:29;;;;;;;25.60;11.40;;;;;;;2.80;74.16;99740.00;5429105;32;34270;-70
2021/12/11 06:08:33;;;;;;;26.30;11.98;;;;;;;2.38;75.95;99761.47;5416355;32;34073;-76
2021/12/11 06:11:38;;;;;;;27.17;12.52;;;;;;;2.39;75.57;99772.69;5405217;32;32719;-70
2021/12/11 06:14:42;;;;;;;28.62;12.85;;;;;;;2.82;73.59;99771.97;5420134;32;33460;-71
2021/12/11 06:17:46;;;;;;;27.83;13.17;;;;;;;2.10;76.94;99786.94;5422622;32;32754;-71
2021/12/11 06:20:49;;;;;;;29.97;13.50;;;;;;;2.59;75.04;99795.72;5415365;32;33207;-71
2021/12/11 06:23:52;;;;;;;31.43;15.30;;;;;;;2.78;75.06;99797.13;5434963;32;34517;-76
2021/12/11 06:26:56;;;;;;;30.30;13.13;;;;;;;2.60;76.07;99806.06;5405201;32;34877;-77
2021/12/11 06:29:59;;;;;;;27.90;12.57;;;;;;;3.15;71.79;99815.50;5426947;32;32918;-70
2021/12/11 06:33:03;;;;;;;27.52;13.02;;;;;;;2.80;72.72;99821.31;5422970;32;33850;-70
2021/12/11 06:36:10;;;;;;;33.70;17.47;;;;;;;2.91;73.66;99826.34;5404154;32;33944;-76
2021/12/11 06:39:17;;;;;;;26.83;13.30;;;;;;;3.77;70.19;99844.66;5406902;32;34540;-70
2021/12/11 06:42:20;;;;;;;26.43;12.07;;;;;;;4.31;67.95;99854.75;5409164;32;32980;-76
2021/12/11 06:45:26;;;;;;;28.02;12.63;;;;;;;3.80;67.81;99856.75;5434456;32;34447;-70
2021/12/11 06:48:28;;;;;;;29.83;13.10;;;;;;;3.03;72.19;99854.69;5402863;32;34244;-77
2021/12/11 06:51:32;;;;;;;29.10;14.00;;;;;;;2.95;72.88;99856.53;5431034;32;33374;-76
2021/12/11 06:54:34;;;;;;;;;;;;;;;3.62;70.04;99847.56;5410569;32;34019;-70
2021/12/11 06:57:37;;;;;;;29.87;13.77;;;;;;;3.54;69.55;99849.41;5425081;32;35214;-77
2021/12/11 07:00:41;;;;;;;28.95;13.25;;;;;;;3.26;71.16;99869.84;5426059;32;36069;-70
2021/12/11 07:03:44;;;;;;;27.00;12.82;;;;;;;3.76;69.12;99878.47;5416110;32;33049;-69
2021/12/11 07:06:51;;;;;;;29.23;13.52;;;;;;;3.36;70.52;99883.56;5428579;32;34482;-70
2021/12/11 07:09:54;;;;;;;29.97;13.50;;;;;;;3.75;69.87;99884.56;5430491;32;34015;-72
2021/12/11 07:12:58;;;;;;;29.35;13.00;;;;;;;3.41;70.75;99905.09;5418708;32;34475;-70
2021/12/11 07:16:02;;;;;;;28.42;13.23;;;;;;;4.51;66.56;99908.16;5398399;32;34211;-71
2021/12/11 07:19:07;;;;;;;23.47;11.00;;;;;;;3.76;68.12;99915.72;5403981;32;35590;-69
2021/12/11 07:22:10;;;;;;;26.55;10.98;;;;;;;3.03;71.68;99940.37;5411786;32;35240;-69
2021/12/11 07:25:26;;;;;;;23.08;10.73;;;;;;;3.38;71.01;99947.59;5413763;32;34083;-71
2021/12/11 07:28:29;;;;;;;21.43;11.37;;;;;;;3.38;68.77;99952.78;5430658;32;34573;-74
2021/12/11 07:31:46;;;;;;;24.05;11.10;;;;;;;2.31;72.66;99963.84;5412525;32;33813;-70
2021/12/11 07:35:02;;;;;;;24.77;10.60;;;;;;;2.81;72.54;99970.09;5378817;32;34865;-73
2021/12/11 07:38:05;;;;;;;20.20;9.50;;;;;;;3.60;68.51;99966.25;5383044;32;35217;-70
2021/12/11 07:41:10;;;;;;;19.52;9.35;;;;;;;3.87;67.68;99966.66;5366401;32;35095;-69
2021/12/11 07:44:13;;;;;;;20.20;9.40;;;;;;;3.54;68.71;99981.94;5378823;32;33993;-68
2021/12/11 07:47:16;;;;;;;20.25;9.52;;;;;;;4.05;67.00;99968.91;5394684;32;33587;-75
2021/12/11 07:50:21;;;;;;;19.58;7.93;;;;;;;3.50;68.85;99980.28;5361505;32;35105;-69
2021/12/11 07:53:24;;;;;;;13.97;6.50;;;;;;;3.76;67.43;99987.66;5396272;32;33866;-75
2021/12/11 07:56:27;;;;;;;18.53;7.53;;;;;;;4.36;63.87;99966.56;5376696;32;34843;-71
2021/12/11 07:59:30;;;;;;;19.27;8.63;;;;;;;3.23;68.19;99974.66;5381705;32;33841;-71
2021/12/11 08:02:32;;;;;;;22.13;8.80;;;;;;;2.89;70.91;99965.66;5394669;32;33986;-70
2021/12/11 08:05:36;;;;;;;19.07;8.83;;;;;;;3.50;67.52;99969.91;5392045;32;32785;-71
2021/12/11 08:08:41;;;;;;;16.17;7.35;;;;;;;4.22;65.88;99959.03;5381953;32;34040;-70
2021/12/11 08:11:45;;;;;;;14.50;7.00;;;;;;;3.40;68.11;99974.38;5378680;32;33835;-72
2021/12/11 08:14:50;;;;;;;15.48;6.60;;;;;;;3.26;69.37;99981.53;5382049;32;35173;-71
2021/12/11 08:17:54;;;;;;;15.13;7.23;;;;;;;2.48;71.27;99990.44;5397064;32;34740;-73
2021/12/11 08:20:58;;;;;;;16.42;8.05;;;;;;;3.58;68.86;99981.03;5397730;32;33721;-69
2021/12/11 08:24:05;;;;;;;15.73;7.03;;;;;;;3.28;68.76;99984.09;5378993;32;34357;-72
2021/12/11 08:27:15;;;;;;;19.67;7.77;;;;;;;3.25;69.19;99985.03;5396208;32;35054;-72
2021/12/11 08:30:19;;;;;;;16.97;7.50;;;;;;;2.89;70.97;99996.81;5402399;32;34384;-71
2021/12/11 08:33:23;;;;;;;17.42;7.60;;;;;;;3.01;69.85;100000.97;5396812;32;35365;-73
2021/12/11 08:36:26;;;;;;;17.10;7.43;;;;;;;2.48;72.81;99990.44;5428844;32;34700;-72
2021/12/11 08:39:32;;;;;;;17.40;7.50;;;;;;;2.72;71.63;100010.88;5418632;32;33059;-72
2021/12/11 08:42:40;;;;;;;16.00;6.73;;;;;;;3.91;68.09;100004.69;5417115;32;34965;-73
2021/12/11 08:45:56;;;;;;;13.23;6.23;;;;;;;3.40;68.04;100012.50;5436811;32;34134;-71
2021/12/11 08:49:03;;;;;;;16.20;7.83;;;;;;;3.31;68.83;100015.25;5404216;32;34285;-73
2021/12/11 08:52:09;;;;;;;16.83;7.37;;;;;;;4.15;65.65;100006.00;5425581;32;33851;-73
2021/12/11 08:55:15;;;;;;;15.83;7.03;;;;;;;4.20;65.55;100002.44;5428830;32;36247;-71
2021/12/11 08:58:19;;;;;;;16.27;7.00;;;;;;;3.93;65.39;100005.53;5432115;32;33920;-71
2021/12/11 09:01:52;;;;;;;13.97;6.60;;;;;;;4.50;64.30;100002.69;5411196;32;36764;-70
2021/12/11 09:04:59;;;;;;;15.50;6.72;;;;;;;3.57;66.67;100010.50;5424854;32;163395;-73
2021/12/11 09:08:11;;;;;;;14.53;7.63;;;;;;;3.45;68.08;100021.94;5421806;32;34398;-73
2021/12/11 09:11:26;;;;;;;16.03;6.70;;;;;;;3.15;68.42;100020.66;5417598;32;35994;-71
2021/12/11 09:14:48;;;;;;;16.90;6.47;;;;;;;3.93;65.95;100026.31;5425328;32;33924;-73
2021/12/11 09:17:52;;;;;;;16.03;7.43;;;;;;;3.74;66.40;100029.28;5422792;32;33644;-72
2021/12/11 09:21:01;;;;;;;13.30;6.63;;;;;;;3.61;66.39;100034.69;5421930;32;35321;-71
2021/12/11 09:24:27;;;;;;;15.50;7.17;;;;;;;3.63;66.71;100038.13;5435259;32;34556;-72
2021/12/11 09:27:35;;;;;;;16.47;7.00;;;;;;;4.59;63.94;100033.75;5402687;32;33813;-71
2021/12/11 09:30:48;;;;;;;11.37;5.43;;;;;;;3.28;67.65;100054.25;5418182;32;34155;-72
2021/12/11 09:34:05;;;;;;;12.43;5.70;;;;;;;2.98;69.81;100046.87;5415573;32;34741;-72
2021/12/11 09:37:09;;;;;;;14.50;5.80;;;;;;;3.59;67.84;100046.84;5412298;32;34512;-73
2021/12/11 09:40:15;;;;;;;14.20;6.13;;;;;;;3.35;67.63;100058.47;5389591;32;34518;-72
2021/12/11 09:43:36;;;;;;;17.03;7.37;;;;;;;3.68;67.29;100055.38;5389924;32;33487;-72
2021/12/11 09:46:46;;;;;;;15.10;7.20;;;;;;;3.57;67.46;100067.66;5410547;32;35679;-72
2021/12/11 09:49:57;;;;;;;13.57;6.30;;;;;;;3.26;69.27;100070.72;5402496;32;35551;-73
2021/12/11 09:52:59;;;;;;;13.27;6.43;;;;;;;3.53;68.60;100077.22;5410253;32;33967;-73
2021/12/11 09:56:06;;;;;;;13.10;6.43;;;;;;;4.00;66.61;100059.16;5394245;32;33295;-74
2021/12/11 09:59:12;;;;;;;15.67;6.73;;;;;;;3.43;68.30;100077.41;5401278;32;34365;-70
2021/12/11 10:02:20;;;;;;;15.63;6.90;;;;;;;3.55;67.57;100076.38;5411782;32;35214;-73
2021/12/11 10:05:35;;;;;;;15.50;7.83;;;;;;;3.18;69.11;100063.91;5419576;32;33026;-71
2021/12/11 10:08:41;;;;;;;16.93;7.50;;;;;;;3.19;70.25;100052.66;5399828;32;34100;-73
2021/12/11 10:12:07;;;;;;;18.23;7.50;;;;;;;2.81;71.47;100045.38;5399183;32;34620;-72
2021/12/11 10:15:19;;;;;;;16.90;7.97;;;;;;;3.32;68.83;100048.13;5405123;32;35193;-73
2021/12/11 10:18:24;;;;;;;14.30;7.17;;;;;;;3.26;70.08;100049.94;5422126;32;34674;-73
2021/12/11 10:21:28;;;;;;;16.90;8.13;;;;;;;2.93;70.31;100053.87;5412506;32;33942;-72
2021/12/11 10:24:32;;;;;;;16.33;7.87;;;;;;;3.29;68.84;100048.19;5410142;32;33855;-71
2021/12/11 10:27:34;;;;;;;17.05;8.20;;;;;;;2.51;72.32;100047.47;5407777;32;33241;-71
2021/12/11 10:30:44;;;;;;;17.97;8.67;;;;;;;2.94;71.34;100052.12;5412770;32;35234;-72
2021/12/11 10:33:47;;;;;;;19.53;9.20;;;;;;;2.47;73.47;100053.56;5419225;32;34203;-70
2021/12/11 10:37:02;;;;;;;18.03;7.93;;;;;;;3.55;69.91;100055.59;5436178;32;34826;-69
2021/12/11 10:40:27;;;;;;;18.17;9.30;;;;;;;3.05;71.05;100076.22;5405101;32;33882;-71
2021/12/11 10:43:35;;;;;;;18.37;8.30;;;;;;;3.07;70.44;100069.25;5433206;32;34781;-70
2021/12/11 10:46:43;;;;;;;15.63;8.00;;;;;;;3.51;69.38;100060.81;5418314;32;35818;-69
2021/12/11 10:49:50;;;;;;;16.43;8.10;;;;;;;2.62;72.37;100065.50;5401095;32;34222;-72
2021/12/11 10:52:53;;;;;;;20.40;8.20;;;;;;;2.44;73.29;100062.22;5402641;32;35259;-71
2021/12/11 10:55:59;;;;;;;14.13;6.70;;;;;;;3.28;70.32;100075.88;5426811;32;34571;-72
2021/12/11 10:59:08;;;;;;;16.77;7.87;;;;;;;2.81;71.49;100066.12;5420912;32;32826;-73
2021/12/11 11:02:29;;;;;;;14.13;7.47;;;;;;;3.06;70.93;100062.34;5404411;32;33597;-73
2021/12/11 11:05:33;;;;;;;13.93;6.17;;;;;;;3.88;68.03;100059.38;5427185;32;32750;-73
2021/12/11 11:08:36;;;;;;;15.73;7.40;;;;;;;3.95;67.50;100045.38;5412858;32;36181;-72
2021/12/11 11:11:40;;;;;;;19.63;8.33;;;;;;;4.11;66.97;100033.81;5426849;32;35255;-70
2021/12/11 11:14:42;;;;;;;17.87;8.45;;;;;;;4.41;65.16;100023.72;5417031;32;34593;-71
2021/12/11 11:17:45;;;;;;;17.57;7.80;;;;;;;3.94;67.22;100038.47;5400918;32;35239;-71
2021/12/11 11:20:59;;;;;;;15.50;7.77;;;;;;;4.26;65.57;100030.06;5418463;32;33608;-70
2021/12/11 11:24:03;;;;;;;14.90;8.07;;;;;;;4.01;66.94;100038.31;5429354;32;33921;-70
2021/12/11 11:27:07;;;;;;;16.00;7.63;;;;;;;3.76;67.63;100039.63;5410594;32;34983;-71
2021/12/11 11:30:17;;;;;;;18.43;8.00;;;;;;;3.79;67.64;100039.56;5400981;32;33965;-71
2021/12/11 11:33:21;;;;;;;16.80;8.43;;;;;;;3.41;69.15;100037.59;5427549;32;33203;-69
2021/12/11 11:36:26;;;;;;;18.80;8.37;;;;;;;3.51;70.04;100032.22;5428492;32;34699;-72
2021/12/11 11:39:28;;;;;;;17.03;8.17;;;;;;;3.77;67.49;100017.94;5401699;32;32655;-71
2021/12/11 11:42:32;;;;;;;17.67;8.77;;;;;;;3.95;66.53;100032.38;5427634;32;35712;-71
2021/12/11 11:45:35;;;;;;;18.45;8.45;;;;;;;3.65;68.99;100028.56;5412398;32;34776;-72
2021/12/11 11:48:46;;;;;;;16.27;7.57;;;;;;;3.70;68.85;100045.78;5387787;32;32965;-73
2021/12/11 11:51:57;;;;;;;17.93;7.73;;;;;;;3.38;69.89;100048.91;5415147;32;34215;-73
2021/12/11 11:55:07;;;;;;;20.03;8.67;;;;;;;3.66;69.62;100064.03;5392606;32;33479;-72
2021/12/11 11:58:09;;;;;;;18.00;8.73;;;;;;;3.58;70.60;100071.97;5432172;32;34391;-71
2021/12/11 12:01:28;;;;;;;18.30;9.23;;;;;;;3.02;72.62;100068.44;5429626;32;34088;-72
2021/12/11 12:04:32;;;;;;;20.93;9.13;;;;;;;3.24;72.25;100072.47;5428347;32;35125;-71
2021/12/11 12:07:35;;;;;;;20.17;9.50;;;;;;;4.40;67.17;100058.44;5410163;32;34263;-72
2021/12/11 12:10:38;;;;;;;21.33;9.67;;;;;;;3.59;70.26;100075.44;5412822;32;34051;-71
2021/12/11 12:13:43;;;;;;;21.70;9.90;;;;;;;3.01;73.08;100079.72;5396509;32;33984;-72
2021/12/11 12:17:02;;;;;;;20.03;10.43;;;;;;;3.23;71.47;100086.34;5404477;32;33824;-71
2021/12/11 12:20:10;;;;;;;22.17;11.17;;;;;;;3.58;71.33;100084.97;5391535;32;35446;-72
2021/12/11 12:23:14;;;;;;;21.70;10.07;;;;;;;3.67;71.02;100102.16;5433223;32;33860;-72
2021/12/11 12:26:22;;;;;;;21.92;11.43;;;;;;;4.56;67.48;100097.13;5414111;32;34877;-72
2021/12/11 12:29:26;;;;;;;25.10;11.53;;;;;;;5.09;66.06;100087.38;5421695;32;33189;-71
2021/12/11 12:32:36;;;;;;;25.53;11.43;;;;;;;3.69;70.53;100101.25;5417148;32;34513;-70
2021/12/11 12:35:39;;;;;;;23.13;12.00;;;;;;;4.29;68.05;100085.50;5425380;32;33897;-72
2021/12/11 12:38:46;;;;;;;26.55;12.70;;;;;;;4.54;67.88;100085.03;5406434;32;35459;-71
2021/12/11 12:42:04;;;;;;;27.73;13.03;;;;;;;5.19;65.26;100079.38;5412554;32;35650;-72
2021/12/11 12:45:21;;;;;;;24.30;12.37;;;;;;;4.33;67.48;100091.50;5418950;32;35213;-71
2021/12/11 12:48:23;;;;;;;24.07;12.47;;;;;;;4.59;66.45;100085.81;5421790;32;34754;-72
2021/12/11 12:51:29;;;;;;;27.67;12.43;;;;;;;4.32;67.70;100079.41;5429323;32;32996;-72
2021/12/11 12:54:32;;;;;;;26.70;13.10;;;;;;;3.58;72.05;100073.72;5416022;32;34310;-71
2021/12/11 12:57:41;;;;;;;26.30;12.63;;;;;;;3.07;73.68;100084.84;5419116;32;34279;-71
2021/12/11 13:01:01;;;;;;;32.83;14.07;;;;;;;3.79;72.08;100071.63;5410238;32;34585;-71
2021/12/11 13:04:06;;;;;;;29.03;13.87;;;;;;;3.93;70.40;100074.00;5426363;32;34971;-70
2021/12/11 13:07:12;;;;;;;28.10;10.13;;;;;;;4.28;69.43;100082.94;5432394;32;34969;-71
2021/12/11 13:10:23;;;;;;;32.00;13.57;;;;;;;3.41;72.39;100079.16;5432925;32;34909;-73
2021/12/11 13:13:26;;;;;;;25.50;11.97;;;;;;;3.31;72.81;100077.59;5412364;32;34069;-71
2021/12/11 13:16:33;;;;;;;26.77;12.77;;;;;;;3.15;72.98;100075.19;5432850;32;34191;-72
2021/12/11 13:19:40;;;;;;;23.70;10.90;;;;;;;3.97;69.79;100072.19;5415959;32;34339;-72
2021/12/11 13:22:44;;;;;;;27.90;12.10;;;;;;;3.57;70.20;100069.41;5433093;32;34576;-73
2021/12/11 13:25:54;;;;;;;23.23;10.90;;;;;;;3.58;70.98;100076.31;5403888;32;35229;-72
2021/12/11 13:28:59;;;;;;;26.77;11.73;;;;;;;3.69;71.13;100080.47;5402956;32;34254;-72
2021/12/11 13:32:05;;;;;;;23.20;10.60;;;;;;;3.82;70.46;100083.72;5407859;32;33363;-72
2021/12/11 13:35:13;;;;;;;24.60;11.43;;;;;;;3.20;71.66;100083.78;5416209;32;34950;-71
2021/12/11 13:38:18;;;;;;;30.43;12.40;;;;;;;4.39;68.15;100082.75;5422414;32;32720;-73
2021/12/11 13:41:34;;;;;;;23.70;11.20;;;;;;;3.85;68.66;100088.00;5426163;32;36265;-72
2021/12/11 13:44:51;;;;;;;23.10;10.90;;;;;;;3.73;69.89;100095.09;5397557;32;33160;-72
2021/12/11 13:47:55;;;;;;;26.90;12.03;;;;;;;3.84;70.36;100102.75;5432850;32;34026;-72
2021/12/11 13:51:12;;;;;;;23.07;11.87;;;;;;;4.38;68.35;100110.50;5426565;32;34554;-71
2021/12/11 13:54:16;;;;;;;27.53;12.53;;;;;;;4.80;66.49;100110.56;5422092;32;34025;-72
2021/12/11 13:57:24;;;;;;;29.63;12.83;;;;;;;4.06;70.05;100113.66;5397403;32;34424;-72
2021/12/11 14:00:32;;;;;;;30.07;13.43;;;;;;;4.02;69.36;100105.06;5417929;32;35068;-71
2021/12/11 14:03:44;;;;;;;31.90;13.70;;;;;;;3.58;71.64;100104.91;5434036;32;33845;-72
2021/12/11 14:06:52;;;;;;;;;;;;;;;3.29;73.11;100094.94;5416434;32;33735;-71
2021/12/11 14:09:58;;;;;;;29.33;13.30;;;;;;;3.33;73.91;100089.66;5436668;32;34430;-71
2021/12/11 14:13:04;;;;;;;27.37;13.00;;;;;;;3.20;74.67;100088.13;5429058;32;35003;-72
2021/12/11 14:16:09;;;;;;;27.03;13.37;;;;;;;3.38;73.09;100100.00;5432987;32;34099;-72
2021/12/11 14:19:12;;;;;;;29.87;12.80;;;;;;;3.16;74.29;100110.69;5432689;32;35675;-71
2021/12/11 14:22:17;;;;;;;30.23;13.80;;;;;;;3.06;75.02;100119.47;5429968;32;34840;-72
2021/12/11 14:25:21;;;;;;;31.93;13.47;;;;;;;3.01;75.55;100117.81;5438020;32;34747;-71
2021/12/11 14:28:26;;;;;;;28.77;12.73;;;;;;;3.45;73.56;100120.66;5409711;32;34144;-71
2021/12/11 14:31:30;;;;;;;30.90;14.33;;;;;;;3.59;73.36;100135.19;5414099;32;34926;-71
2021/12/11 14:34:33;;;;;;;30.83;14.23;;;;;;;3.73;73.48;100136.69;5428606;32;33486;-72
2021/12/11 14:37:36;;;;;;;30.45;14.85;;;;;;;3.34;73.96;100135.53;5417818;32;32786;-72
2021/12/11 14:40:41;;;;;;;31.87;13.60;;;;;;;3.85;72.84;100143.47;5399255;32;32710;-71
2021/12/11 14:43:44;;;;;;;29.43;13.83;;;;;;;3.91;72.62;100147.72;5430875;32;34447;-72
2021/12/11 14:46:52;;;;;;;30.33;14.20;;;;;;;4.19;70.18;100150.75;5419974;32;33816;-71